sensor_id;sensor_type;location;lat;lon;timestamp;P1;durP1;ratioP1;P2;durP2;ratioP2
15254;SDS011;7730;49.610;11.136;2024-03-06T00:02:26;16.23;;;10.23;;
15254;SDS011;7730;49.610;11.136;2024-03-06T00:04:53;17.00;;;10.43;;
15254;SDS011;7730;49.610;11.136;2024-03-06T00:07:23;18.27;;;11.20;;
15254;SDS011;7730;49.610;11.136;2024-03-06T00:09:51;19.23;;;11.27;;
15254;SDS011;7730;49.610;11.136;2024-03-06T00:12:19;18.05;;;11.32;;
15254;SDS011;7730;49.610;11.136;2024-03-06T00:14:49;17.55;;;11.23;;
15254;SDS011;7730;49.610;11.136;2024-03-06T00:17:18;18.25;;;11.70;;
15254;SDS011;7730;49.610;11.136;2024-03-06T00:19:45;17.88;;;11.38;;
15254;SDS011;7730;49.610;11.136;2024-03-06T00:22:12;17.73;;;11.07;;
15254;SDS011;7730;49.610;11.136;2024-03-06T00:24:39;19.65;;;11.13;;
15254;SDS011;7730;49.610;11.136;2024-03-06T00:27:11;17.60;;;11.05;;
15254;SDS011;7730;49.610;11.136;2024-03-06T00:29:38;18.42;;;11.07;;
15254;SDS011;7730;49.610;11.136;2024-03-06T00:32:07;17.88;;;11.18;;
15254;SDS011;7730;49.610;11.136;2024-03-06T00:34:35;18.92;;;11.93;;
15254;SDS011;7730;49.610;11.136;2024-03-06T00:37:02;19.17;;;11.23;;
15254;SDS011;7730;49.610;11.136;2024-03-06T00:39:30;18.48;;;11.88;;
15254;SDS011;7730;49.610;11.136;2024-03-06T00:41:56;18.02;;;10.73;;
15254;SDS011;7730;49.610;11.136;2024-03-06T00:44:23;19.38;;;11.52;;
15254;SDS011;7730;49.610;11.136;2024-03-06T00:46:50;18.00;;;12.00;;
15254;SDS011;7730;49.610;11.136;2024-03-06T00:49:19;19.40;;;11.90;;
15254;SDS011;7730;49.610;11.136;2024-03-06T00:51:46;18.13;;;11.68;;
15254;SDS011;7730;49.610;11.136;2024-03-06T00:54:13;19.70;;;12.13;;
15254;SDS011;7730;49.610;11.136;2024-03-06T00:56:40;19.52;;;12.50;;
15254;SDS011;7730;49.610;11.136;2024-03-06T00:59:07;20.15;;;12.80;;
15254;SDS011;7730;49.610;11.136;2024-03-06T01:01:35;19.02;;;11.23;;
15254;SDS011;7730;49.610;11.136;2024-03-06T01:04:02;17.73;;;11.27;;
15254;SDS011;7730;49.610;11.136;2024-03-06T01:06:31;20.23;;;12.30;;
15254;SDS011;7730;49.610;11.136;2024-03-06T01:08:58;19.67;;;12.55;;
15254;SDS011;7730;49.610;11.136;2024-03-06T01:11:25;19.00;;;11.85;;
15254;SDS011;7730;49.610;11.136;2024-03-06T01:13:52;18.13;;;11.25;;
15254;SDS011;7730;49.610;11.136;2024-03-06T01:16:19;17.30;;;10.48;;
15254;SDS011;7730;49.610;11.136;2024-03-06T01:18:46;17.85;;;11.05;;
15254;SDS011;7730;49.610;11.136;2024-03-06T01:21:13;18.77;;;10.73;;
15254;SDS011;7730;49.610;11.136;2024-03-06T01:23:41;17.90;;;11.07;;
15254;SDS011;7730;49.610;11.136;2024-03-06T01:26:09;17.80;;;10.82;;
15254;SDS011;7730;49.610;11.136;2024-03-06T01:28:36;17.80;;;10.70;;
15254;SDS011;7730;49.610;11.136;2024-03-06T01:31:03;18.55;;;11.57;;
15254;SDS011;7730;49.610;11.136;2024-03-06T01:33:31;18.17;;;11.57;;
15254;SDS011;7730;49.610;11.136;2024-03-06T01:35:58;19.83;;;12.48;;
15254;SDS011;7730;49.610;11.136;2024-03-06T01:38:25;20.08;;;12.75;;
15254;SDS011;7730;49.610;11.136;2024-03-06T01:40:53;18.90;;;12.00;;
15254;SDS011;7730;49.610;11.136;2024-03-06T01:43:21;19.67;;;14.45;;
15254;SDS011;7730;49.610;11.136;2024-03-06T01:45:48;18.88;;;11.75;;
15254;SDS011;7730;49.610;11.136;2024-03-06T01:48:16;19.52;;;12.23;;
15254;SDS011;7730;49.610;11.136;2024-03-06T01:50:43;19.23;;;11.85;;
15254;SDS011;7730;49.610;11.136;2024-03-06T01:53:10;18.88;;;12.05;;
15254;SDS011;7730;49.610;11.136;2024-03-06T01:55:37;18.63;;;11.65;;
15254;SDS011;7730;49.610;11.136;2024-03-06T01:58:06;18.25;;;11.40;;
15254;SDS011;7730;49.610;11.136;2024-03-06T02:00:33;19.70;;;12.57;;
15254;SDS011;7730;49.610;11.136;2024-03-06T02:03:00;18.42;;;11.50;;
15254;SDS011;7730;49.610;11.136;2024-03-06T02:05:27;18.23;;;11.95;;
15254;SDS011;7730;49.610;11.136;2024-03-06T02:07:55;20.17;;;12.23;;
15254;SDS011;7730;49.610;11.136;2024-03-06T02:10:23;19.55;;;12.27;;
15254;SDS011;7730;49.610;11.136;2024-03-06T02:12:51;18.40;;;11.75;;
15254;SDS011;7730;49.610;11.136;2024-03-06T02:15:19;18.25;;;12.07;;
15254;SDS011;7730;49.610;11.136;2024-03-06T02:17:46;18.15;;;11.50;;
15254;SDS011;7730;49.610;11.136;2024-03-06T02:20:13;18.67;;;11.43;;
15254;SDS011;7730;49.610;11.136;2024-03-06T02:22:42;17.73;;;11.40;;
15254;SDS011;7730;49.610;11.136;2024-03-06T02:25:09;18.00;;;11.60;;
15254;SDS011;7730;49.610;11.136;2024-03-06T02:27:36;18.55;;;11.35;;
15254;SDS011;7730;49.610;11.136;2024-03-06T02:30:03;18.98;;;12.25;;
15254;SDS011;7730;49.610;11.136;2024-03-06T02:32:31;19.40;;;12.38;;
15254;SDS011;7730;49.610;11.136;2024-03-06T02:34:58;18.88;;;11.63;;
15254;SDS011;7730;49.610;11.136;2024-03-06T02:37:25;18.48;;;12.25;;
15254;SDS011;7730;49.610;11.136;2024-03-06T02:39:53;19.30;;;12.52;;
15254;SDS011;7730;49.610;11.136;2024-03-06T02:42:20;19.15;;;11.75;;
15254;SDS011;7730;49.610;11.136;2024-03-06T02:44:47;18.33;;;12.25;;
15254;SDS011;7730;49.610;11.136;2024-03-06T02:47:14;17.98;;;11.60;;
15254;SDS011;7730;49.610;11.136;2024-03-06T02:49:41;18.40;;;11.30;;
15254;SDS011;7730;49.610;11.136;2024-03-06T02:52:08;19.55;;;12.30;;
15254;SDS011;7730;49.610;11.136;2024-03-06T02:54:35;19.70;;;13.07;;
15254;SDS011;7730;49.610;11.136;2024-03-06T02:57:04;19.00;;;12.40;;
15254;SDS011;7730;49.610;11.136;2024-03-06T02:59:30;21.48;;;13.32;;
15254;SDS011;7730;49.610;11.136;2024-03-06T03:01:57;20.98;;;13.45;;
15254;SDS011;7730;49.610;11.136;2024-03-06T03:04:25;20.40;;;13.75;;
15254;SDS011;7730;49.610;11.136;2024-03-06T03:06:52;21.83;;;14.52;;
15254;SDS011;7730;49.610;11.136;2024-03-06T03:09:19;21.80;;;14.45;;
15254;SDS011;7730;49.610;11.136;2024-03-06T03:11:46;22.17;;;14.27;;
15254;SDS011;7730;49.610;11.136;2024-03-06T03:14:15;21.50;;;14.40;;
15254;SDS011;7730;49.610;11.136;2024-03-06T03:16:41;20.15;;;13.55;;
15254;SDS011;7730;49.610;11.136;2024-03-06T03:19:08;21.60;;;14.15;;
15254;SDS011;7730;49.610;11.136;2024-03-06T03:21:35;21.90;;;14.57;;
15254;SDS011;7730;49.610;11.136;2024-03-06T03:24:03;22.55;;;15.30;;
15254;SDS011;7730;49.610;11.136;2024-03-06T03:26:30;21.13;;;14.25;;
15254;SDS011;7730;49.610;11.136;2024-03-06T03:28:57;21.00;;;14.00;;
15254;SDS011;7730;49.610;11.136;2024-03-06T03:31:25;21.80;;;14.63;;
15254;SDS011;7730;49.610;11.136;2024-03-06T03:33:52;22.40;;;14.65;;
15254;SDS011;7730;49.610;11.136;2024-03-06T03:36:19;21.55;;;14.25;;
15254;SDS011;7730;49.610;11.136;2024-03-06T03:38:46;22.08;;;15.02;;
15254;SDS011;7730;49.610;11.136;2024-03-06T03:41:13;21.42;;;14.13;;
15254;SDS011;7730;49.610;11.136;2024-03-06T03:43:41;23.25;;;15.07;;
15254;SDS011;7730;49.610;11.136;2024-03-06T03:46:08;22.48;;;15.02;;
15254;SDS011;7730;49.610;11.136;2024-03-06T03:48:36;21.40;;;14.50;;
15254;SDS011;7730;49.610;11.136;2024-03-06T03:51:04;21.73;;;14.38;;
15254;SDS011;7730;49.610;11.136;2024-03-06T03:53:31;21.95;;;14.63;;
15254;SDS011;7730;49.610;11.136;2024-03-06T03:55:58;21.65;;;15.18;;
15254;SDS011;7730;49.610;11.136;2024-03-06T03:58:25;22.27;;;14.77;;
15254;SDS011;7730;49.610;11.136;2024-03-06T04:00:52;20.50;;;13.48;;
15254;SDS011;7730;49.610;11.136;2024-03-06T04:03:20;21.70;;;14.52;;
15254;SDS011;7730;49.610;11.136;2024-03-06T04:05:49;20.65;;;14.18;;
15254;SDS011;7730;49.610;11.136;2024-03-06T04:08:16;22.20;;;14.93;;
15254;SDS011;7730;49.610;11.136;2024-03-06T04:10:43;21.48;;;14.35;;
15254;SDS011;7730;49.610;11.136;2024-03-06T04:13:10;23.50;;;14.65;;
15254;SDS011;7730;49.610;11.136;2024-03-06T04:15:37;22.20;;;14.35;;
15254;SDS011;7730;49.610;11.136;2024-03-06T04:18:04;21.95;;;14.75;;
15254;SDS011;7730;49.610;11.136;2024-03-06T04:20:32;21.20;;;14.73;;
15254;SDS011;7730;49.610;11.136;2024-03-06T04:23:00;22.80;;;15.30;;
15254;SDS011;7730;49.610;11.136;2024-03-06T04:25:27;23.63;;;16.73;;
15254;SDS011;7730;49.610;11.136;2024-03-06T04:27:54;24.52;;;16.63;;
15254;SDS011;7730;49.610;11.136;2024-03-06T04:30:21;24.08;;;15.73;;
15254;SDS011;7730;49.610;11.136;2024-03-06T04:32:49;23.83;;;16.25;;
15254;SDS011;7730;49.610;11.136;2024-03-06T04:35:17;24.20;;;16.05;;
15254;SDS011;7730;49.610;11.136;2024-03-06T04:37:44;23.42;;;15.85;;
15254;SDS011;7730;49.610;11.136;2024-03-06T04:40:12;20.95;;;14.45;;
15254;SDS011;7730;49.610;11.136;2024-03-06T04:42:42;22.67;;;15.88;;
15254;SDS011;7730;49.610;11.136;2024-03-06T04:45:14;21.88;;;14.80;;
15254;SDS011;7730;49.610;11.136;2024-03-06T04:47:41;23.85;;;16.02;;
15254;SDS011;7730;49.610;11.136;2024-03-06T04:50:08;23.05;;;15.85;;
15254;SDS011;7730;49.610;11.136;2024-03-06T04:52:36;23.67;;;16.55;;
15254;SDS011;7730;49.610;11.136;2024-03-06T04:55:03;24.67;;;16.55;;
15254;SDS011;7730;49.610;11.136;2024-03-06T04:57:32;23.20;;;16.35;;
15254;SDS011;7730;49.610;11.136;2024-03-06T04:59:59;24.80;;;16.58;;
15254;SDS011;7730;49.610;11.136;2024-03-06T05:02:29;23.90;;;16.83;;
15254;SDS011;7730;49.610;11.136;2024-03-06T05:04:59;23.02;;;15.70;;
15254;SDS011;7730;49.610;11.136;2024-03-06T05:07:27;24.15;;;16.95;;
15254;SDS011;7730;49.610;11.136;2024-03-06T05:09:54;22.00;;;15.60;;
15254;SDS011;7730;49.610;11.136;2024-03-06T05:12:22;24.10;;;16.25;;
15254;SDS011;7730;49.610;11.136;2024-03-06T05:14:50;25.30;;;16.33;;
15254;SDS011;7730;49.610;11.136;2024-03-06T05:17:17;24.95;;;16.15;;
15254;SDS011;7730;49.610;11.136;2024-03-06T05:19:45;24.58;;;17.33;;
15254;SDS011;7730;49.610;11.136;2024-03-06T05:22:12;24.85;;;16.60;;
15254;SDS011;7730;49.610;11.136;2024-03-06T05:24:39;24.35;;;16.88;;
15254;SDS011;7730;49.610;11.136;2024-03-06T05:27:07;23.40;;;16.45;;
15254;SDS011;7730;49.610;11.136;2024-03-06T05:29:34;24.45;;;17.33;;
15254;SDS011;7730;49.610;11.136;2024-03-06T05:32:02;22.73;;;15.95;;
15254;SDS011;7730;49.610;11.136;2024-03-06T05:34:29;24.50;;;16.52;;
15254;SDS011;7730;49.610;11.136;2024-03-06T05:36:56;23.83;;;16.58;;
15254;SDS011;7730;49.610;11.136;2024-03-06T05:39:23;24.45;;;16.73;;
15254;SDS011;7730;49.610;11.136;2024-03-06T05:41:50;23.85;;;16.08;;
15254;SDS011;7730;49.610;11.136;2024-03-06T05:44:17;24.02;;;16.20;;
15254;SDS011;7730;49.610;11.136;2024-03-06T05:46:44;25.27;;;16.70;;
15254;SDS011;7730;49.610;11.136;2024-03-06T05:49:13;24.15;;;17.27;;
15254;SDS011;7730;49.610;11.136;2024-03-06T05:51:40;25.52;;;17.20;;
15254;SDS011;7730;49.610;11.136;2024-03-06T05:54:07;25.75;;;17.60;;
15254;SDS011;7730;49.610;11.136;2024-03-06T05:56:34;24.33;;;16.90;;
15254;SDS011;7730;49.610;11.136;2024-03-06T05:59:01;24.40;;;16.42;;
15254;SDS011;7730;49.610;11.136;2024-03-06T06:01:29;26.00;;;17.55;;
15254;SDS011;7730;49.610;11.136;2024-03-06T06:03:57;24.88;;;17.77;;
15254;SDS011;7730;49.610;11.136;2024-03-06T06:06:26;29.38;;;17.95;;
15254;SDS011;7730;49.610;11.136;2024-03-06T06:08:53;25.42;;;17.38;;
15254;SDS011;7730;49.610;11.136;2024-03-06T06:11:20;25.58;;;18.00;;
15254;SDS011;7730;49.610;11.136;2024-03-06T06:13:47;26.50;;;17.80;;
15254;SDS011;7730;49.610;11.136;2024-03-06T06:16:14;27.50;;;19.05;;
15254;SDS011;7730;49.610;11.136;2024-03-06T06:18:42;27.33;;;17.73;;
15254;SDS011;7730;49.610;11.136;2024-03-06T06:21:09;27.50;;;17.63;;
15254;SDS011;7730;49.610;11.136;2024-03-06T06:23:37;26.58;;;17.63;;
15254;SDS011;7730;49.610;11.136;2024-03-06T06:26:04;26.40;;;17.80;;
15254;SDS011;7730;49.610;11.136;2024-03-06T06:28:31;25.63;;;16.65;;
15254;SDS011;7730;49.610;11.136;2024-03-06T06:30:58;27.08;;;18.05;;
15254;SDS011;7730;49.610;11.136;2024-03-06T06:33:25;25.48;;;16.50;;
15254;SDS011;7730;49.610;11.136;2024-03-06T06:35:52;26.50;;;17.83;;
15254;SDS011;7730;49.610;11.136;2024-03-06T06:38:19;25.15;;;16.05;;
15254;SDS011;7730;49.610;11.136;2024-03-06T06:40:48;25.95;;;17.33;;
15254;SDS011;7730;49.610;11.136;2024-03-06T06:43:15;25.02;;;17.10;;
15254;SDS011;7730;49.610;11.136;2024-03-06T06:45:42;24.50;;;16.02;;
15254;SDS011;7730;49.610;11.136;2024-03-06T06:48:09;26.90;;;16.67;;
15254;SDS011;7730;49.610;11.136;2024-03-06T06:50:37;24.77;;;16.25;;
15254;SDS011;7730;49.610;11.136;2024-03-06T06:53:04;24.55;;;15.98;;
15254;SDS011;7730;49.610;11.136;2024-03-06T06:55:31;23.27;;;15.02;;
15254;SDS011;7730;49.610;11.136;2024-03-06T06:57:59;22.75;;;14.27;;
15254;SDS011;7730;49.610;11.136;2024-03-06T07:00:26;22.17;;;13.43;;
15254;SDS011;7730;49.610;11.136;2024-03-06T07:02:55;20.15;;;12.18;;
15254;SDS011;7730;49.610;11.136;2024-03-06T07:05:23;20.55;;;12.40;;
15254;SDS011;7730;49.610;11.136;2024-03-06T07:07:51;19.75;;;11.23;;
15254;SDS011;7730;49.610;11.136;2024-03-06T07:10:19;21.13;;;12.02;;
15254;SDS011;7730;49.610;11.136;2024-03-06T07:12:46;19.50;;;10.77;;
15254;SDS011;7730;49.610;11.136;2024-03-06T07:15:14;19.83;;;11.07;;
15254;SDS011;7730;49.610;11.136;2024-03-06T07:17:41;19.80;;;11.18;;
15254;SDS011;7730;49.610;11.136;2024-03-06T07:20:09;19.75;;;11.55;;
15254;SDS011;7730;49.610;11.136;2024-03-06T07:22:36;19.63;;;10.75;;
15254;SDS011;7730;49.610;11.136;2024-03-06T07:25:04;19.33;;;9.98;;
15254;SDS011;7730;49.610;11.136;2024-03-06T07:27:31;18.05;;;10.27;;
15254;SDS011;7730;49.610;11.136;2024-03-06T07:29:58;19.92;;;10.88;;
15254;SDS011;7730;49.610;11.136;2024-03-06T07:32:26;19.05;;;10.55;;
15254;SDS011;7730;49.610;11.136;2024-03-06T07:34:53;19.45;;;10.60;;
15254;SDS011;7730;49.610;11.136;2024-03-06T07:37:20;18.83;;;10.98;;
15254;SDS011;7730;49.610;11.136;2024-03-06T07:39:47;18.58;;;10.00;;
15254;SDS011;7730;49.610;11.136;2024-03-06T07:42:14;17.77;;;9.25;;
15254;SDS011;7730;49.610;11.136;2024-03-06T07:44:43;19.08;;;10.45;;
15254;SDS011;7730;49.610;11.136;2024-03-06T07:47:10;17.80;;;9.18;;
15254;SDS011;7730;49.610;11.136;2024-03-06T07:49:38;20.02;;;10.80;;
15254;SDS011;7730;49.610;11.136;2024-03-06T07:52:05;19.20;;;10.43;;
15254;SDS011;7730;49.610;11.136;2024-03-06T07:54:32;19.65;;;10.68;;
15254;SDS011;7730;49.610;11.136;2024-03-06T07:56:59;19.08;;;10.30;;
15254;SDS011;7730;49.610;11.136;2024-03-06T07:59:26;19.42;;;11.18;;
15254;SDS011;7730;49.610;11.136;2024-03-06T08:01:53;19.05;;;10.45;;
15254;SDS011;7730;49.610;11.136;2024-03-06T08:04:21;18.75;;;10.05;;
15254;SDS011;7730;49.610;11.136;2024-03-06T08:06:49;18.77;;;10.52;;
15254;SDS011;7730;49.610;11.136;2024-03-06T08:09:16;19.88;;;10.25;;
15254;SDS011;7730;49.610;11.136;2024-03-06T08:11:44;19.77;;;10.65;;
15254;SDS011;7730;49.610;11.136;2024-03-06T08:14:11;18.00;;;10.18;;
15254;SDS011;7730;49.610;11.136;2024-03-06T08:16:39;18.42;;;10.50;;
15254;SDS011;7730;49.610;11.136;2024-03-06T08:19:07;20.27;;;10.32;;
15254;SDS011;7730;49.610;11.136;2024-03-06T08:21:34;17.75;;;10.35;;
15254;SDS011;7730;49.610;11.136;2024-03-06T08:24:03;18.70;;;10.13;;
15254;SDS011;7730;49.610;11.136;2024-03-06T08:26:30;18.65;;;10.45;;
15254;SDS011;7730;49.610;11.136;2024-03-06T08:28:57;19.48;;;10.80;;
15254;SDS011;7730;49.610;11.136;2024-03-06T08:31:24;17.92;;;10.02;;
15254;SDS011;7730;49.610;11.136;2024-03-06T08:33:52;17.67;;;9.90;;
15254;SDS011;7730;49.610;11.136;2024-03-06T08:36:19;19.42;;;11.05;;
15254;SDS011;7730;49.610;11.136;2024-03-06T08:38:46;18.50;;;10.40;;
15254;SDS011;7730;49.610;11.136;2024-03-06T08:41:15;19.52;;;11.55;;
15254;SDS011;7730;49.610;11.136;2024-03-06T08:43:42;19.63;;;10.68;;
15254;SDS011;7730;49.610;11.136;2024-03-06T08:46:09;18.33;;;10.07;;
15254;SDS011;7730;49.610;11.136;2024-03-06T08:48:37;26.67;;;11.63;;
15254;SDS011;7730;49.610;11.136;2024-03-06T08:51:04;18.33;;;9.43;;
15254;SDS011;7730;49.610;11.136;2024-03-06T08:53:35;19.13;;;10.57;;
15254;SDS011;7730;49.610;11.136;2024-03-06T08:56:03;18.75;;;11.18;;
15254;SDS011;7730;49.610;11.136;2024-03-06T08:58:31;19.83;;;10.73;;
15254;SDS011;7730;49.610;11.136;2024-03-06T09:00:58;18.75;;;10.00;;
15254;SDS011;7730;49.610;11.136;2024-03-06T09:03:25;18.98;;;9.90;;
15254;SDS011;7730;49.610;11.136;2024-03-06T09:05:52;21.67;;;11.40;;
15254;SDS011;7730;49.610;11.136;2024-03-06T09:08:19;19.17;;;10.43;;
15254;SDS011;7730;49.610;11.136;2024-03-06T09:10:46;19.23;;;11.18;;
15254;SDS011;7730;49.610;11.136;2024-03-06T09:13:13;19.52;;;11.07;;
15254;SDS011;7730;49.610;11.136;2024-03-06T09:15:42;18.60;;;10.75;;
15254;SDS011;7730;49.610;11.136;2024-03-06T09:18:09;20.10;;;10.25;;
15254;SDS011;7730;49.610;11.136;2024-03-06T09:20:36;18.42;;;9.68;;
15254;SDS011;7730;49.610;11.136;2024-03-06T09:23:03;18.55;;;9.70;;
15254;SDS011;7730;49.610;11.136;2024-03-06T09:25:30;20.83;;;11.10;;
15254;SDS011;7730;49.610;11.136;2024-03-06T09:27:57;20.40;;;11.70;;
15254;SDS011;7730;49.610;11.136;2024-03-06T09:30:25;20.55;;;11.07;;
15254;SDS011;7730;49.610;11.136;2024-03-06T09:32:54;28.58;;;12.45;;
15254;SDS011;7730;49.610;11.136;2024-03-06T09:35:21;19.80;;;11.43;;
15254;SDS011;7730;49.610;11.136;2024-03-06T09:37:48;18.48;;;9.77;;
15254;SDS011;7730;49.610;11.136;2024-03-06T09:40:21;20.67;;;11.40;;
15254;SDS011;7730;49.610;11.136;2024-03-06T09:42:49;21.13;;;12.00;;
15254;SDS011;7730;49.610;11.136;2024-03-06T09:45:16;19.30;;;11.38;;
15254;SDS011;7730;49.610;11.136;2024-03-06T09:47:44;20.80;;;12.15;;
15254;SDS011;7730;49.610;11.136;2024-03-06T09:50:13;21.33;;;12.15;;
15254;SDS011;7730;49.610;11.136;2024-03-06T09:52:45;21.38;;;12.88;;
15254;SDS011;7730;49.610;11.136;2024-03-06T09:55:13;20.80;;;11.73;;
15254;SDS011;7730;49.610;11.136;2024-03-06T09:57:40;20.08;;;11.32;;
15254;SDS011;7730;49.610;11.136;2024-03-06T10:00:08;20.98;;;12.25;;
15254;SDS011;7730;49.610;11.136;2024-03-06T10:02:37;21.63;;;11.88;;
15254;SDS011;7730;49.610;11.136;2024-03-06T10:05:05;20.55;;;11.75;;
15254;SDS011;7730;49.610;11.136;2024-03-06T10:07:34;21.90;;;12.43;;
15254;SDS011;7730;49.610;11.136;2024-03-06T10:10:01;18.52;;;9.18;;
15254;SDS011;7730;49.610;11.136;2024-03-06T10:12:28;13.13;;;4.25;;
15254;SDS011;7730;49.610;11.136;2024-03-06T10:14:55;30.15;;;12.40;;
15254;SDS011;7730;49.610;11.136;2024-03-06T10:17:22;18.85;;;9.85;;
15254;SDS011;7730;49.610;11.136;2024-03-06T10:19:52;18.45;;;10.25;;
15254;SDS011;7730;49.610;11.136;2024-03-06T10:22:19;19.35;;;10.70;;
15254;SDS011;7730;49.610;11.136;2024-03-06T10:24:50;19.40;;;10.02;;
15254;SDS011;7730;49.610;11.136;2024-03-06T10:27:22;18.30;;;9.73;;
15254;SDS011;7730;49.610;11.136;2024-03-06T10:30:00;19.30;;;10.35;;
15254;SDS011;7730;49.610;11.136;2024-03-06T10:32:27;18.23;;;10.02;;
15254;SDS011;7730;49.610;11.136;2024-03-06T10:34:54;23.42;;;10.15;;
15254;SDS011;7730;49.610;11.136;2024-03-06T10:37:21;17.65;;;8.73;;
15254;SDS011;7730;49.610;11.136;2024-03-06T10:39:50;17.77;;;8.93;;
15254;SDS011;7730;49.610;11.136;2024-03-06T10:42:19;16.95;;;9.13;;
15254;SDS011;7730;49.610;11.136;2024-03-06T10:44:49;17.60;;;7.05;;
15254;SDS011;7730;49.610;11.136;2024-03-06T10:47:18;15.55;;;6.82;;
15254;SDS011;7730;49.610;11.136;2024-03-06T10:49:46;17.80;;;9.15;;
15254;SDS011;7730;49.610;11.136;2024-03-06T10:52:13;17.98;;;7.93;;
15254;SDS011;7730;49.610;11.136;2024-03-06T10:54:41;18.00;;;7.97;;
15254;SDS011;7730;49.610;11.136;2024-03-06T10:57:12;18.48;;;9.63;;
15254;SDS011;7730;49.610;11.136;2024-03-06T10:59:40;17.70;;;9.05;;
15254;SDS011;7730;49.610;11.136;2024-03-06T11:02:09;19.13;;;9.65;;
15254;SDS011;7730;49.610;11.136;2024-03-06T11:04:37;19.02;;;9.95;;
15254;SDS011;7730;49.610;11.136;2024-03-06T11:07:06;20.90;;;9.70;;
15254;SDS011;7730;49.610;11.136;2024-03-06T11:09:33;17.95;;;9.45;;
15254;SDS011;7730;49.610;11.136;2024-03-06T11:12:01;18.35;;;9.95;;
15254;SDS011;7730;49.610;11.136;2024-03-06T11:14:30;17.77;;;9.32;;
15254;SDS011;7730;49.610;11.136;2024-03-06T11:16:58;17.88;;;9.50;;
15254;SDS011;7730;49.610;11.136;2024-03-06T11:19:25;18.00;;;9.00;;
15254;SDS011;7730;49.610;11.136;2024-03-06T11:21:53;18.13;;;9.88;;
15254;SDS011;7730;49.610;11.136;2024-03-06T11:24:21;18.15;;;9.88;;
15254;SDS011;7730;49.610;11.136;2024-03-06T11:26:49;19.30;;;9.25;;
15254;SDS011;7730;49.610;11.136;2024-03-06T11:29:16;18.15;;;10.07;;
15254;SDS011;7730;49.610;11.136;2024-03-06T11:34:33;19.27;;;10.32;;
15254;SDS011;7730;49.610;11.136;2024-03-06T11:37:02;18.65;;;9.80;;
15254;SDS011;7730;49.610;11.136;2024-03-06T11:39:34;18.73;;;10.48;;
15254;SDS011;7730;49.610;11.136;2024-03-06T11:42:02;18.45;;;9.32;;
15254;SDS011;7730;49.610;11.136;2024-03-06T11:44:29;19.77;;;10.27;;
15254;SDS011;7730;49.610;11.136;2024-03-06T11:46:58;19.00;;;9.63;;
15254;SDS011;7730;49.610;11.136;2024-03-06T11:49:26;18.98;;;10.18;;
15254;SDS011;7730;49.610;11.136;2024-03-06T11:51:56;18.58;;;10.45;;
15254;SDS011;7730;49.610;11.136;2024-03-06T11:54:23;18.58;;;10.40;;
15254;SDS011;7730;49.610;11.136;2024-03-06T11:56:53;19.23;;;10.07;;
15254;SDS011;7730;49.610;11.136;2024-03-06T11:59:21;19.95;;;10.50;;
15254;SDS011;7730;49.610;11.136;2024-03-06T12:01:49;20.00;;;11.23;;
15254;SDS011;7730;49.610;11.136;2024-03-06T12:04:16;19.15;;;10.32;;
15254;SDS011;7730;49.610;11.136;2024-03-06T12:06:43;18.75;;;10.85;;
15254;SDS011;7730;49.610;11.136;2024-03-06T12:09:12;20.38;;;11.27;;
15254;SDS011;7730;49.610;11.136;2024-03-06T12:11:40;20.90;;;11.50;;
15254;SDS011;7730;49.610;11.136;2024-03-06T12:14:12;18.75;;;10.27;;
15254;SDS011;7730;49.610;11.136;2024-03-06T12:16:39;19.60;;;11.95;;
15254;SDS011;7730;49.610;11.136;2024-03-06T12:19:07;21.50;;;11.38;;
15254;SDS011;7730;49.610;11.136;2024-03-06T12:21:35;20.05;;;11.20;;
15254;SDS011;7730;49.610;11.136;2024-03-06T12:24:04;19.52;;;10.70;;
15254;SDS011;7730;49.610;11.136;2024-03-06T12:26:32;19.83;;;10.85;;
15254;SDS011;7730;49.610;11.136;2024-03-06T12:29:05;19.40;;;10.70;;
15254;SDS011;7730;49.610;11.136;2024-03-06T12:31:34;19.33;;;10.95;;
15254;SDS011;7730;49.610;11.136;2024-03-06T12:34:01;19.27;;;10.52;;
15254;SDS011;7730;49.610;11.136;2024-03-06T12:36:28;18.67;;;10.73;;
15254;SDS011;7730;49.610;11.136;2024-03-06T12:38:56;21.10;;;10.55;;
15254;SDS011;7730;49.610;11.136;2024-03-06T12:41:23;18.90;;;10.15;;
15254;SDS011;7730;49.610;11.136;2024-03-06T12:43:52;18.85;;;10.73;;
15254;SDS011;7730;49.610;11.136;2024-03-06T12:46:19;20.10;;;10.63;;
15254;SDS011;7730;49.610;11.136;2024-03-06T12:48:46;20.02;;;10.18;;
15254;SDS011;7730;49.610;11.136;2024-03-06T12:51:13;19.20;;;10.20;;
15254;SDS011;7730;49.610;11.136;2024-03-06T12:53:40;19.63;;;11.32;;
15254;SDS011;7730;49.610;11.136;2024-03-06T12:56:07;20.15;;;11.18;;
15254;SDS011;7730;49.610;11.136;2024-03-06T12:58:34;19.08;;;10.52;;
15254;SDS011;7730;49.610;11.136;2024-03-06T13:01:03;18.50;;;10.63;;
15254;SDS011;7730;49.610;11.136;2024-03-06T13:03:31;20.50;;;11.52;;
15254;SDS011;7730;49.610;11.136;2024-03-06T13:05:59;20.45;;;11.30;;
15254;SDS011;7730;49.610;11.136;2024-03-06T13:08:26;19.25;;;10.68;;
15254;SDS011;7730;49.610;11.136;2024-03-06T13:10:53;18.23;;;10.75;;
15254;SDS011;7730;49.610;11.136;2024-03-06T13:13:21;20.27;;;12.13;;
15254;SDS011;7730;49.610;11.136;2024-03-06T13:15:49;20.77;;;10.98;;
15254;SDS011;7730;49.610;11.136;2024-03-06T13:18:18;18.98;;;9.73;;
15254;SDS011;7730;49.610;11.136;2024-03-06T13:20:45;18.77;;;9.63;;
15254;SDS011;7730;49.610;11.136;2024-03-06T13:23:12;19.70;;;11.02;;
15254;SDS011;7730;49.610;11.136;2024-03-06T13:25:39;19.13;;;11.50;;
15254;SDS011;7730;49.610;11.136;2024-03-06T13:28:06;20.15;;;10.85;;
15254;SDS011;7730;49.610;11.136;2024-03-06T13:30:34;17.80;;;10.07;;
15254;SDS011;7730;49.610;11.136;2024-03-06T13:33:01;17.73;;;10.07;;
15254;SDS011;7730;49.610;11.136;2024-03-06T13:35:29;17.13;;;9.25;;
15254;SDS011;7730;49.610;11.136;2024-03-06T13:37:56;17.75;;;9.70;;
15254;SDS011;7730;49.610;11.136;2024-03-06T13:40:23;17.40;;;9.63;;
15254;SDS011;7730;49.610;11.136;2024-03-06T13:42:51;19.02;;;9.82;;
15254;SDS011;7730;49.610;11.136;2024-03-06T13:45:19;18.52;;;9.30;;
15254;SDS011;7730;49.610;11.136;2024-03-06T13:47:46;16.23;;;8.38;;
15254;SDS011;7730;49.610;11.136;2024-03-06T13:50:14;17.35;;;9.07;;
15254;SDS011;7730;49.610;11.136;2024-03-06T13:52:43;16.90;;;8.63;;
15254;SDS011;7730;49.610;11.136;2024-03-06T13:55:10;16.40;;;8.55;;
15254;SDS011;7730;49.610;11.136;2024-03-06T13:57:38;17.52;;;9.13;;
15254;SDS011;7730;49.610;11.136;2024-03-06T14:00:06;16.67;;;8.57;;
15254;SDS011;7730;49.610;11.136;2024-03-06T14:02:37;16.42;;;8.27;;
15254;SDS011;7730;49.610;11.136;2024-03-06T14:05:04;17.05;;;9.55;;
15254;SDS011;7730;49.610;11.136;2024-03-06T14:07:31;15.52;;;8.27;;
15254;SDS011;7730;49.610;11.136;2024-03-06T14:10:00;16.88;;;8.70;;
15254;SDS011;7730;49.610;11.136;2024-03-06T14:12:27;15.70;;;7.47;;
15254;SDS011;7730;49.610;11.136;2024-03-06T14:14:54;17.02;;;8.32;;
15254;SDS011;7730;49.610;11.136;2024-03-06T14:17:21;17.17;;;9.35;;
15254;SDS011;7730;49.610;11.136;2024-03-06T14:19:49;17.50;;;9.55;;
15254;SDS011;7730;49.610;11.136;2024-03-06T14:22:16;17.98;;;10.18;;
15254;SDS011;7730;49.610;11.136;2024-03-06T14:24:43;17.75;;;9.13;;
15254;SDS011;7730;49.610;11.136;2024-03-06T14:27:11;18.02;;;9.65;;
15254;SDS011;7730;49.610;11.136;2024-03-06T14:29:38;16.23;;;8.82;;